Time;durP1;ratioP1;P1;durP2;ratioP2;P2;SDS_P1;SDS_P2;PMS_P1;PMS_P2;Temp;Humidity;BMP_temperature;BMP_pressure;BME280_temperature;BME280_humidity;BME280_pressure;Samples;Min_cycle;Max_cycle;Signal;HPM_P1;HPM_P2
2021/04/14 00:00:29;;;;;;;9.48;5.50;;;2.70;96.60;;;;;;5058049;28;20060;-75
2021/04/14 00:02:56;;;;;;;13.23;5.72;;;2.70;96.70;;;;;;5056780;28;20064;-76
2021/04/14 00:05:24;;;;;;;12.82;6.28;;;2.70;96.70;;;;;;5057790;28;20052;-76
2021/04/14 00:07:50;;;;;;;11.52;5.88;;;2.70;96.80;;;;;;5054946;28;20051;-76
2021/04/14 00:10:28;;;;;;;12.32;5.38;;;2.70;96.90;;;;;;5036639;28;20037;-76
2021/04/14 00:12:54;;;;;;;10.27;5.28;;;2.60;96.90;;;;;;5040616;28;20083;-76
2021/04/14 00:15:33;;;;;;;11.57;5.10;;;2.60;96.90;;;;;;5028021;28;20155;-76
2021/04/14 00:17:59;;;;;;;11.50;5.38;;;2.70;97.20;;;;;;5025985;28;20083;-76
2021/04/14 00:20:25;;;;;;;18.58;7.75;;;2.70;97.20;;;;;;5038887;28;20052;-76
2021/04/14 00:22:51;;;;;;;10.90;5.70;;;2.70;96.90;;;;;;5043130;28;20128;-76
2021/04/14 00:25:33;;;;;;;10.38;5.80;;;2.60;96.80;;;;;;5041976;28;20088;-76
2021/04/14 00:27:59;;;;;;;7.65;4.60;;;2.60;96.70;;;;;;5022654;28;20501;-76
2021/04/14 00:30:26;;;;;;;9.07;5.05;;;2.60;96.80;;;;;;5042601;28;20040;-76
2021/04/14 00:32:52;;;;;;;11.20;5.65;;;2.50;96.90;;;;;;5042855;28;20616;-76
2021/04/14 00:35:21;;;;;;;14.82;5.88;;;2.50;97.00;;;;;;5027475;28;20435;-76
2021/04/14 00:37:47;;;;;;;14.23;5.90;;;2.50;96.90;;;;;;5040036;28;20450;-76
2021/04/14 00:40:18;;;;;;;11.18;5.60;;;2.50;97.00;;;;;;5043792;28;20065;-76
2021/04/14 00:42:44;;;;;;;10.82;5.93;;;2.50;97.30;;;;;;5043789;28;20084;-76
2021/04/14 00:45:10;;;;;;;12.45;5.40;;;2.50;97.10;;;;;;5044804;28;20037;-76
2021/04/14 00:47:36;;;;;;;12.85;5.60;;;2.50;97.10;;;;;;5042792;28;20049;-76
2021/04/14 00:50:12;;;;;;;10.65;5.18;;;2.50;97.20;;;;;;5036742;28;20478;-76
2021/04/14 00:52:38;;;;;;;9.40;4.88;;;2.50;97.40;;;;;;5039094;28;20412;-76
2021/04/14 00:55:08;;;;;;;10.48;5.07;;;2.40;97.40;;;;;;5028338;28;20043;-76
2021/04/14 00:57:33;;;;;;;10.27;5.95;;;2.40;97.30;;;;;;5021353;28;20124;-75
2021/04/14 00:59:59;;;;;;;13.48;5.55;;;2.40;97.20;;;;;;5040951;28;20125;-76
2021/04/14 01:02:28;;;;;;;7.25;4.15;;;2.30;97.10;;;;;;5040580;28;20040;-76
2021/04/14 01:04:54;;;;;;;10.77;5.00;;;2.30;97.00;;;;;;5041632;28;20059;-76
2021/04/14 01:07:22;;;;;;;12.98;5.10;;;2.20;97.10;;;;;;5043947;28;20508;-76
2021/04/14 01:09:47;;;;;;;8.20;4.85;;;2.20;97.10;;;;;;5035552;28;20704;-76
2021/04/14 01:12:14;;;;;;;9.73;5.18;;;2.20;97.60;;;;;;5044175;28;20037;-76
2021/04/14 01:14:40;;;;;;;13.25;5.47;;;2.20;97.50;;;;;;5040000;28;20451;-76
2021/04/14 01:17:06;;;;;;;13.00;5.70;;;2.20;97.50;;;;;;5038915;28;20417;-76
2021/04/14 01:19:32;;;;;;;15.68;5.55;;;2.20;97.60;;;;;;5039745;28;20037;-76
2021/04/14 01:21:58;;;;;;;10.70;6.03;;;2.20;97.70;;;;;;5040345;28;20498;-76
2021/04/14 01:24:26;;;;;;;8.57;4.90;;;2.20;97.80;;;;;;5044553;28;20036;-76
2021/04/14 01:26:52;;;;;;;12.85;6.28;;;2.20;97.70;;;;;;5023447;28;20412;-76
2021/04/14 01:29:18;;;;;;;11.98;5.38;;;2.20;97.50;;;;;;5036064;28;20555;-76
2021/04/14 01:31:44;;;;;;;12.32;5.30;;;2.20;97.50;;;;;;5045263;28;20123;-76
2021/04/14 01:34:14;;;;;;;9.70;5.15;;;2.20;97.50;;;;;;5037688;28;20045;-76
2021/04/14 01:36:40;;;;;;;9.88;5.60;;;2.20;97.50;;;;;;5044079;28;20512;-76
2021/04/14 01:39:07;;;;;;;11.15;5.30;;;2.20;97.40;;;;;;5024435;28;20028;-76
2021/04/14 01:41:34;;;;;;;13.73;5.38;;;2.20;97.30;;;;;;5025034;28;20029;-76
2021/04/14 01:44:00;;;;;;;10.75;5.35;;;2.10;97.20;;;;;;5028157;28;20473;-76
2021/04/14 01:46:26;;;;;;;8.55;4.90;;;2.10;97.20;;;;;;5023242;28;20087;-76
2021/04/14 01:48:52;;;;;;;11.20;5.07;;;2.10;97.30;;;;;;5045564;28;20049;-76
2021/04/14 01:51:18;;;;;;;10.88;5.10;;;2.00;97.20;;;;;;5040838;28;20037;-76
2021/04/14 01:53:44;;;;;;;8.93;5.07;;;2.00;97.20;;;;;;5011790;28;20024;-76
2021/04/14 01:56:10;;;;;;;9.75;6.40;;;2.00;97.20;;;;;;5043640;28;20033;-76
2021/04/14 01:58:36;;;;;;;7.43;4.00;;;2.00;97.60;;;;;;5037075;28;20048;-76
2021/04/14 02:01:06;;;;;;;7.40;4.40;;;1.90;97.90;;;;;;5040347;28;20037;-76
2021/04/14 02:03:35;;;;;;;11.18;5.00;;;1.90;97.60;;;;;;5033018;28;20429;-76
2021/04/14 02:06:01;;;;;;;7.70;4.00;;;1.90;97.40;;;;;;5025876;28;20036;-76
2021/04/14 02:08:27;;;;;;;10.70;5.18;;;1.90;97.40;;;;;;5019411;28;20773;-76
2021/04/14 02:10:56;;;;;;;8.80;5.60;;;1.80;97.30;;;;;;5021944;28;20041;-76
2021/04/14 02:13:24;;;;;;;8.40;4.22;;;1.80;97.30;;;;;;5043925;28;20048;-76
2021/04/14 02:15:51;;;;;;;8.73;4.70;;;1.80;97.90;;;;;;5039027;28;20048;-76
2021/04/14 02:18:39;;;;;;;11.07;4.50;;;1.80;97.60;;;;;;5012078;28;20053;-76
2021/04/14 02:21:05;;;;;;;6.10;4.38;;;1.80;97.40;;;;;;5028812;28;20040;-76
2021/04/14 02:23:34;;;;;;;5.80;3.75;;;1.80;97.40;;;;;;5044583;28;20038;-76
2021/04/14 02:26:16;;;;;;;6.68;4.25;;;1.70;97.40;;;;;;5030270;28;20045;-76
2021/04/14 02:28:44;;;;;;;7.85;4.63;;;1.70;97.40;;;;;;5029333;28;20064;-76
2021/04/14 02:31:10;;;;;;;8.45;4.03;;;1.70;97.30;;;;;;5042764;28;20458;-76
2021/04/14 02:33:36;;;;;;;6.55;3.78;;;1.70;97.30;;;;;;5046282;28;20057;-76
2021/04/14 02:36:04;;;;;;;6.30;3.15;;;1.70;97.20;;;;;;5046132;28;20041;-76
2021/04/14 02:38:32;;;;;;;5.28;3.10;;;1.60;97.20;;;;;;5043812;28;20048;-76
2021/04/14 02:41:05;;;;;;;5.90;3.58;;;1.60;97.20;;;;;;5026663;28;20090;-76
2021/04/14 02:43:53;;;;;;;6.10;3.50;;;1.60;97.20;;;;;;5033404;28;20099;-76
2021/04/14 02:46:21;;;;;;;7.43;3.60;;;1.50;97.10;;;;;;5058997;28;20041;-75
2021/04/14 02:48:50;;;;;;;5.30;3.25;;;1.50;97.30;;;;;;5040488;28;20052;-76
2021/04/14 02:51:36;;;;;;;4.43;2.80;;;1.60;97.50;;;;;;5033316;28;20493;-76
2021/04/14 02:54:03;;;;;;;4.85;3.00;;;1.60;97.60;;;;;;5046317;28;20040;-76
2021/04/14 02:56:28;;;;;;;9.10;3.20;;;1.60;97.60;;;;;;5023596;28;20048;-76
2021/04/14 02:58:54;;;;;;;7.57;3.22;;;1.60;97.40;;;;;;5022292;28;20033;-76
2021/04/14 03:01:22;;;;;;;5.85;3.75;;;1.60;97.40;;;;;;5023871;28;20060;-76
2021/04/14 03:03:48;;;;;;;8.20;2.95;;;1.60;97.40;;;;;;5045348;28;20130;-76
2021/04/14 03:06:14;;;;;;;5.90;3.22;;;1.60;97.30;;;;;;5040925;28;20681;-76
2021/04/14 03:08:40;;;;;;;4.47;2.88;;;1.50;97.30;;;;;;5020835;28;20041;-76
2021/04/14 03:11:05;;;;;;;6.50;3.38;;;1.50;97.20;;;;;;5043273;28;20532;-76
2021/04/14 03:13:31;;;;;;;4.53;2.70;;;1.50;97.30;;;;;;5046593;28;20123;-76
2021/04/14 03:15:57;;;;;;;4.43;2.88;;;1.50;97.40;;;;;;5037819;28;20048;-76
2021/04/14 03:18:23;;;;;;;6.03;2.63;;;1.50;97.30;;;;;;5040667;28;20591;-76
2021/04/14 03:20:48;;;;;;;5.68;2.80;;;1.50;97.20;;;;;;5039776;28;20056;-76
2021/04/14 03:23:21;;;;;;;8.38;3.03;;;1.50;97.30;;;;;;5030664;28;20045;-76
2021/04/14 03:25:46;;;;;;;6.65;2.70;;;1.40;97.20;;;;;;5060782;28;20029;-76
2021/04/14 03:28:13;;;;;;;7.78;2.75;;;1.40;97.20;;;;;;5043801;28;20060;-76
2021/04/14 03:30:40;;;;;;;10.18;3.20;;;1.40;97.30;;;;;;5039598;28;20079;-76
2021/04/14 03:33:07;;;;;;;5.30;2.90;;;1.40;97.50;;;;;;5041520;28;20037;-76
2021/04/14 03:35:32;;;;;;;7.32;3.03;;;1.40;97.50;;;;;;5045203;28;20033;-76
2021/04/14 03:37:59;;;;;;;5.10;2.97;;;1.40;97.60;;;;;;5046003;28;20044;-76
2021/04/14 03:40:46;;;;;;;3.65;2.65;;;1.40;97.60;;;;;;5024388;28;20053;-76
2021/04/14 03:43:12;;;;;;;6.18;3.13;;;1.40;97.70;;;;;;5041925;28;20025;-76
2021/04/14 03:45:41;;;;;;;5.65;3.00;;;1.40;97.70;;;;;;5044645;28;20144;-76
2021/04/14 03:48:09;;;;;;;6.55;2.95;;;1.40;97.70;;;;;;5045602;28;20037;-76
2021/04/14 03:50:35;;;;;;;4.88;2.72;;;1.30;97.80;;;;;;5040455;28;20067;-76
2021/04/14 03:53:25;;;;;;;4.82;2.60;;;1.40;97.80;;;;;;5031752;28;20053;-76
2021/04/14 03:56:03;;;;;;;3.40;2.50;;;1.40;97.80;;;;;;5037320;28;20112;-76
2021/04/14 03:58:30;;;;;;;10.20;2.90;;;1.40;98.10;;;;;;5021367;28;20053;-76
2021/04/14 04:00:59;;;;;;;6.60;2.45;;;1.50;98.20;;;;;;5039787;28;20037;-76
2021/04/14 04:03:27;;;;;;;4.60;2.65;;;1.40;98.00;;;;;;5055849;28;20041;-76
2021/04/14 04:05:54;;;;;;;6.03;2.55;;;1.40;97.90;;;;;;5026356;28;20091;-76
2021/04/14 04:08:40;;;;;;;4.30;2.60;;;1.40;97.90;;;;;;5038519;28;20478;-76
2021/04/14 04:11:06;;;;;;;4.15;2.60;;;1.40;98.10;;;;;;5043203;28;20041;-76
2021/04/14 04:13:34;;;;;;;4.20;1.85;;;1.40;97.90;;;;;;5023372;28;20041;-76
2021/04/14 04:16:21;;;;;;;8.23;2.13;;;1.40;98.30;;;;;;5024910;28;20040;-76
2021/04/14 04:18:50;;;;;;;9.05;2.47;;;1.40;98.40;;;;;;5043439;28;20033;-76
2021/04/14 04:21:17;;;;;;;3.42;1.83;;;1.40;98.40;;;;;;5039614;28;20056;-76
2021/04/14 04:23:43;;;;;;;5.15;2.13;;;1.50;98.40;;;;;;5042322;28;20039;-76
2021/04/14 04:26:09;;;;;;;10.15;2.55;;;1.50;98.40;;;;;;5036054;28;20095;-76
2021/04/14 04:28:35;;;;;;;5.10;1.88;;;1.50;98.30;;;;;;5046729;28;20561;-76
2021/04/14 04:31:01;;;;;;;4.25;2.10;;;1.50;98.30;;;;;;5026574;28;20061;-76
2021/04/14 04:33:27;;;;;;;5.03;2.33;;;1.50;98.20;;;;;;5047370;28;20515;-76
2021/04/14 04:35:53;;;;;;;4.43;2.20;;;1.50;98.30;;;;;;5047626;28;20072;-76
2021/04/14 04:38:21;;;;;;;3.92;1.80;;;1.50;98.30;;;;;;5052739;28;20084;-76
2021/04/14 04:40:47;;;;;;;2.75;1.35;;;1.50;98.10;;;;;;5055811;28;20048;-77
2021/04/14 04:43:23;;;;;;;3.45;2.05;;;1.50;98.00;;;;;;5036594;28;20029;-76
2021/04/14 04:45:51;;;;;;;8.60;2.80;;;1.50;98.00;;;;;;5037017;28;20033;-76
2021/04/14 04:48:16;;;;;;;3.67;1.90;;;1.60;98.00;;;;;;5047660;28;20131;-76
2021/04/14 04:50:42;;;;;;;3.72;1.70;;;1.60;97.90;;;;;;5050109;28;20135;-76
2021/04/14 04:53:21;;;;;;;3.00;1.80;;;1.50;97.60;;;;;;5053717;28;20043;-76
2021/04/14 04:56:07;;;;;;;3.38;1.85;;;1.50;97.70;;;;;;5042717;28;20052;-76
2021/04/14 04:58:33;;;;;;;3.95;1.70;;;1.40;97.60;;;;;;5044420;28;20044;-76
2021/04/14 05:00:59;;;;;;;2.58;1.70;;;1.40;97.50;;;;;;5042328;28;20086;-76
2021/04/14 05:03:28;;;;;;;4.13;2.00;;;1.40;97.50;;;;;;5045121;28;20056;-76
2021/04/14 05:05:56;;;;;;;5.68;1.83;;;1.40;97.40;;;;;;5046198;28;20036;-76
2021/04/14 05:08:24;;;;;;;4.95;1.70;;;1.30;97.20;;;;;;5037886;28;20493;-77
2021/04/14 05:10:50;;;;;;;3.10;1.90;;;1.30;97.30;;;;;;5041096;28;20044;-76
2021/04/14 05:13:16;;;;;;;4.95;1.60;;;1.30;97.40;;;;;;5036534;28;20043;-76
2021/04/14 05:15:41;;;;;;;3.92;1.63;;;1.30;97.30;;;;;;5040291;28;20036;-76
2021/04/14 05:18:09;;;;;;;5.32;1.40;;;1.30;97.30;;;;;;5061026;28;20044;-76
2021/04/14 05:20:35;;;;;;;2.35;1.67;;;1.20;97.40;;;;;;5054825;28;20037;-76
2021/04/14 05:23:04;;;;;;;3.67;1.88;;;1.30;97.50;;;;;;5023364;28;20033;-76
2021/04/14 05:25:32;;;;;;;6.72;1.90;;;1.30;97.50;;;;;;5040284;28;20390;-76
2021/04/14 05:28:06;;;;;;;3.45;1.60;;;1.30;97.50;;;;;;5050566;28;20072;-76
2021/04/14 05:30:32;;;;;;;3.75;1.80;;;1.20;97.30;;;;;;5031043;28;20059;-76
2021/04/14 05:33:19;;;;;;;5.10;1.80;;;1.20;97.30;;;;;;5046417;28;20044;-76
2021/04/14 05:35:45;;;;;;;4.50;1.92;;;1.20;97.40;;;;;;5034967;28;20037;-76
2021/04/14 05:38:12;;;;;;;3.17;1.60;;;1.20;97.50;;;;;;5023556;28;20065;-76
2021/04/14 05:40:38;;;;;;;3.20;1.77;;;1.20;97.70;;;;;;5046453;28;20040;-76
2021/04/14 05:43:23;;;;;;;4.45;2.08;;;1.30;97.80;;;;;;5042574;28;20455;-76
2021/04/14 05:46:04;;;;;;;8.85;2.40;;;1.30;97.90;;;;;;5022410;28;20037;-76
2021/04/14 05:48:30;;;;;;;4.60;2.45;;;1.30;98.00;;;;;;5047124;28;20098;-76
2021/04/14 05:50:59;;;;;;;4.63;1.95;;;1.40;98.20;;;;;;5027856;28;20033;-76
2021/04/14 05:53:26;;;;;;;3.47;1.90;;;1.50;98.20;;;;;;5037253;28;20047;-76
2021/04/14 05:55:52;;;;;;;2.83;2.20;;;1.60;98.20;;;;;;5045534;28;20037;-76
2021/04/14 05:58:18;;;;;;;3.70;1.67;;;1.70;98.20;;;;;;5061254;28;20040;-77
2021/04/14 06:00:44;;;;;;;9.25;1.88;;;1.70;98.00;;;;;;5013693;28;20038;-77
2021/04/14 06:03:11;;;;;;;4.32;2.20;;;1.70;98.00;;;;;;5034653;28;20504;-76
2021/04/14 06:05:36;;;;;;;3.53;2.10;;;1.70;98.00;;;;;;5044150;28;20175;-76
2021/04/14 06:08:03;;;;;;;7.97;1.90;;;1.80;98.10;;;;;;5034449;28;20541;-76
2021/04/14 06:10:29;;;;;;;6.03;1.95;;;1.80;98.20;;;;;;5052287;28;20103;-76
2021/04/14 06:12:55;;;;;;;4.28;2.05;;;1.90;98.30;;;;;;5044045;28;20045;-76
2021/04/14 06:15:27;;;;;;;8.93;2.17;;;1.90;98.30;;;;;;5044490;28;20045;-76
2021/04/14 06:17:53;;;;;;;4.35;1.95;;;2.10;98.60;;;;;;5038054;28;20052;-76
2021/04/14 06:20:23;;;;;;;5.53;1.75;;;2.20;98.60;;;;;;5047400;28;20041;-77
2021/04/14 06:23:14;;;;;;;6.18;2.13;;;2.30;98.50;;;;;;5031310;28;20073;-77
2021/04/14 06:25:41;;;;;;;5.30;2.20;;;2.40;98.40;;;;;;5012752;28;20045;-78
2021/04/14 06:28:08;;;;;;;4.20;2.35;;;2.50;98.30;;;;;;5031222;28;20041;-77
2021/04/14 06:30:36;;;;;;;8.50;2.05;;;2.60;98.10;;;;;;5030564;28;20041;-77
2021/04/14 06:33:04;;;;;;;5.43;2.15;;;2.60;98.00;;;;;;5033023;28;20042;-78
2021/04/14 06:35:31;;;;;;;4.75;1.98;;;2.70;97.90;;;;;;5041614;28;20116;-78
2021/04/14 06:37:58;;;;;;;7.85;1.85;;;2.70;97.80;;;;;;4995267;28;20049;-77
2021/04/14 06:43:17;;;;;;;8.63;1.90;;;2.80;97.70;;;;;;5059340;28;20540;-77
2021/04/14 06:45:51;;;;;;;6.35;2.00;;;2.90;97.70;;;;;;5024589;28;20045;-77
2021/04/14 06:48:35;;;;;;;5.97;1.95;;;2.90;97.60;;;;;;5023158;28;20060;-78
2021/04/14 06:51:29;;;;;;;9.38;2.45;;;3.00;97.70;;;;;;5062190;28;20821;-77
2021/04/14 06:54:09;;;;;;;7.00;1.80;;;3.10;97.60;;;;;;5008212;28;20048;-78
2021/04/14 06:56:38;;;;;;;5.20;1.52;;;3.10;97.60;;;;;;5044914;28;20056;-77
2021/04/14 06:59:07;;;;;;;7.60;1.90;;;3.20;97.50;;;;;;5046096;28;20029;-77
2021/04/14 07:01:40;;;;;;;5.00;1.50;;;3.30;96.90;;;;;;5044961;28;20505;-77
2021/04/14 07:04:15;;;;;;;3.67;1.08;;;3.40;96.90;;;;;;5028566;28;20796;-80
2021/04/14 07:06:45;;;;;;;4.85;1.25;;;3.50;96.50;;;;;;5041724;28;20038;-77
2021/04/14 07:09:43;;;;;;;5.13;1.23;;;3.60;96.70;;;;;;5048347;28;20045;-77
2021/04/14 07:12:16;;;;;;;9.10;1.40;;;3.70;96.10;;;;;;5030114;28;20412;-77
2021/04/14 07:14:43;;;;;;;9.90;2.00;;;3.80;95.80;;;;;;5063680;28;20087;-77
2021/04/14 07:18:04;;;;;;;8.30;1.50;;;3.90;95.40;;;;;;5045268;28;20048;-77
2021/04/14 07:20:47;;;;;;;6.20;1.35;;;4.00;95.80;;;;;;5046220;28;20038;-77
2021/04/14 07:23:41;;;;;;;9.23;1.40;;;4.10;96.00;;;;;;5026934;28;20520;-77
2021/04/14 07:26:36;;;;;;;11.32;1.48;;;4.10;95.70;;;;;;5031563;28;20098;-77
2021/04/14 07:29:08;;;;;;;7.00;1.35;;;4.20;95.90;;;;;;5047453;28;20051;-77
2021/04/14 07:31:37;;;;;;;8.25;1.48;;;4.30;95.40;;;;;;5027830;28;20029;-77
2021/04/14 07:34:22;;;;;;;6.95;1.55;;;4.40;95.60;;;;;;5048113;28;20045;-77
2021/04/14 07:37:00;;;;;;;11.95;1.38;;;4.50;95.70;;;;;;5047350;28;20041;-77
2021/04/14 07:39:50;;;;;;;8.60;1.52;;;4.50;95.80;;;;;;5029498;28;20122;-77
2021/04/14 07:42:34;;;;;;;6.22;1.25;;;4.50;95.90;;;;;;5046187;28;20041;-77
2021/04/14 07:45:22;;;;;;;6.20;2.63;;;4.60;95.70;;;;;;5048281;28;20067;-78
2021/04/14 07:47:59;;;;;;;6.88;1.30;;;4.60;95.30;;;;;;5036028;28;20045;-77
2021/04/14 07:50:42;;;;;;;6.53;0.80;;;4.70;95.40;;;;;;5025784;28;20508;-77
2021/04/14 07:53:25;;;;;;;4.90;1.00;;;4.80;95.40;;;;;;5040138;28;20405;-78
2021/04/14 07:56:20;;;;;;;4.88;0.82;;;4.90;93.70;;;;;;5028275;28;20060;-79
2021/04/14 07:59:04;;;;;;;6.70;1.20;;;4.90;94.30;;;;;;5030952;28;20040;-77
2021/04/14 08:01:30;;;;;;;2.55;1.00;;;5.00;93.20;;;;;;5046167;28;20057;-78
2021/04/14 08:04:19;;;;;;;6.85;0.82;;;5.10;93.90;;;;;;5030043;28;20040;-78
2021/04/14 08:06:44;;;;;;;7.05;1.17;;;5.30;91.40;;;;;;5061324;28;20044;-79
2021/04/14 08:09:14;;;;;;;6.30;1.17;;;5.40;90.90;;;;;;5047839;28;20029;-80
2021/04/14 08:11:40;;;;;;;5.32;1.55;;;5.50;90.10;;;;;;5043015;28;20052;-79
2021/04/14 08:14:31;;;;;;;4.95;0.80;;;5.60;91.50;;;;;;5030810;28;20037;-80
2021/04/14 08:17:11;;;;;;;3.25;0.98;;;5.70;88.20;;;;;;5030760;28;20072;-79
2021/04/14 08:19:37;;;;;;;4.78;1.00;;;5.80;90.50;;;;;;5061586;28;20406;-79
2021/04/14 08:22:21;;;;;;;10.25;0.88;;;5.80;90.60;;;;;;5041695;28;20107;-76
2021/04/14 08:24:47;;;;;;;8.88;1.05;;;5.90;91.00;;;;;;5042610;28;20112;-76
2021/04/14 08:27:23;;;;;;;8.38;0.95;;;6.10;91.00;;;;;;5037666;28;20194;-76
2021/04/14 08:30:00;;;;;;;8.10;1.10;;;6.30;91.30;;;;;;5041700;28;20044;-76
2021/04/14 08:32:27;;;;;;;1.60;0.68;;;6.50;89.50;;;;;;5041043;28;20044;-76
2021/04/14 08:34:59;;;;;;;6.68;1.35;;;6.60;89.20;;;;;;5040104;28;20040;-76
2021/04/14 08:37:26;;;;;;;9.32;1.38;;;6.70;90.60;;;;;;5030874;28;20078;-79
2021/04/14 08:39:55;;;;;;;8.13;1.00;;;6.70;85.30;;;;;;5047894;28;20094;-79
2021/04/14 08:42:21;;;;;;;5.68;0.90;;;6.70;88.40;;;;;;5047926;28;20103;-79
2021/04/14 08:44:51;;;;;;;4.72;1.30;;;6.60;89.60;;;;;;5046605;28;20043;-79
2021/04/14 08:47:28;;;;;;;4.88;0.80;;;6.50;87.20;;;;;;5051596;28;20054;-78
2021/04/14 08:50:08;;;;;;;6.72;1.23;;;6.50;87.30;;;;;;5032096;28;20071;-79
2021/04/14 08:52:48;;;;;;;5.05;0.82;;;6.50;86.40;;;;;;5037768;28;20117;-79
2021/04/14 08:55:14;;;;;;;7.95;1.35;;;6.40;86.90;;;;;;5027524;28;20041;-76
2021/04/14 08:57:40;;;;;;;5.75;0.93;;;6.30;87.60;;;;;;5029323;28;20045;-76
2021/04/14 09:00:14;;;;;;;6.93;1.00;;;6.30;87.10;;;;;;5052851;28;20940;-77
2021/04/14 09:02:43;;;;;;;10.38;1.13;;;6.20;82.60;;;;;;5062184;28;20052;-77
2021/04/14 09:05:13;;;;;;;8.50;1.13;;;6.20;85.70;;;;;;5045432;28;20040;-78
2021/04/14 09:07:39;;;;;;;8.02;1.08;;;6.30;87.00;;;;;;5029477;28;20041;-77
2021/04/14 09:10:23;;;;;;;3.40;0.95;;;6.40;89.80;;;;;;5037701;28;20096;-77
2021/04/14 09:12:51;;;;;;;6.95;0.88;;;6.40;90.30;;;;;;5046837;28;20041;-77
2021/04/14 09:15:17;;;;;;;9.68;1.10;;;6.50;90.80;;;;;;5011400;28;20163;-76
2021/04/14 09:17:54;;;;;;;5.57;1.00;;;6.50;91.10;;;;;;5028608;28;20037;-77
2021/04/14 09:20:27;;;;;;;3.30;0.77;;;6.50;91.30;;;;;;5029735;28;20033;-78
2021/04/14 09:23:04;;;;;;;5.07;0.93;;;6.60;91.60;;;;;;5026884;28;20138;-78
2021/04/14 09:25:39;;;;;;;7.60;0.85;;;6.60;91.60;;;;;;5045419;28;20045;-77
2021/04/14 09:28:06;;;;;;;6.00;1.00;;;6.50;91.80;;;;;;5046046;28;20122;-77
2021/04/14 09:30:46;;;;;;;5.05;1.27;;;6.50;91.90;;;;;;5061847;28;20049;-78
2021/04/14 09:33:16;;;;;;;3.05;0.60;;;6.50;92.00;;;;;;5029220;28;20068;-79
2021/04/14 09:36:04;;;;;;;4.68;0.80;;;6.60;92.20;;;;;;5015740;28;20052;-78
2021/04/14 09:38:36;;;;;;;8.63;0.75;;;6.80;92.00;;;;;;5038407;28;20053;-77
2021/04/14 09:41:24;;;;;;;7.97;2.17;;;7.00;91.30;;;;;;5026262;28;20131;-78
2021/04/14 09:43:55;;;;;;;6.65;1.20;;;7.20;88.40;;;;;;5044363;28;20069;-77
2021/04/14 09:46:40;;;;;;;3.37;0.53;;;7.30;87.40;;;;;;5038800;28;20040;-78
2021/04/14 09:49:17;;;;;;;3.35;0.50;;;7.20;83.40;;;;;;5045014;28;20079;-78
2021/04/14 09:51:59;;;;;;;5.70;0.80;;;6.90;85.20;;;;;;5028867;28;20051;-77
2021/04/14 09:54:30;;;;;;;4.88;0.60;;;6.80;86.60;;;;;;5039066;28;20115;-78
2021/04/14 09:56:58;;;;;;;3.00;0.80;;;6.70;88.50;;;;;;5028044;28;20036;-77
2021/04/14 09:59:38;;;;;;;9.50;1.20;;;6.60;89.50;;;;;;5057503;28;20039;-79
2021/04/14 10:02:21;;;;;;;8.27;1.75;;;6.50;89.60;;;;;;5029958;28;20112;-77
2021/04/14 10:04:48;;;;;;;7.35;1.35;;;6.50;88.90;;;;;;5039631;28;20033;-77
2021/04/14 10:07:17;;;;;;;4.38;0.82;;;6.60;90.10;;;;;;5042430;28;20127;-78
2021/04/14 10:09:46;;;;;;;2.90;0.70;;;6.60;89.20;;;;;;5045164;28;20389;-78
2021/04/14 10:12:21;;;;;;;6.95;0.90;;;6.80;88.90;;;;;;5028725;28;20060;-77
2021/04/14 10:14:49;;;;;;;4.68;0.80;;;7.00;89.70;;;;;;5045024;28;20518;-77
2021/04/14 10:17:19;;;;;;;4.05;0.60;;;7.10;86.60;;;;;;5040431;28;20041;-77
2021/04/14 10:19:51;;;;;;;6.70;0.80;;;7.20;87.80;;;;;;5008631;28;20036;-77
2021/04/14 10:22:22;;;;;;;4.57;0.70;;;7.50;87.50;;;;;;5000125;28;20053;-77
2021/04/14 10:24:57;;;;;;;3.75;0.73;;;7.50;86.60;;;;;;5023058;28;20290;-77
2021/04/14 10:27:23;;;;;;;4.13;1.08;;;7.60;87.00;;;;;;5015665;28;20029;-77
2021/04/14 10:29:49;;;;;;;5.45;0.60;;;7.60;85.10;;;;;;5020244;28;20038;-77
2021/04/14 10:32:19;;;;;;;6.15;0.65;;;7.50;82.90;;;;;;5035918;28;20034;-77
2021/04/14 10:34:46;;;;;;;4.38;0.77;;;7.40;83.10;;;;;;5027140;28;20029;-78
2021/04/14 10:37:22;;;;;;;4.00;0.60;;;7.50;83.00;;;;;;5043676;28;20041;-77
2021/04/14 10:39:49;;;;;;;3.78;0.60;;;7.70;85.20;;;;;;5026881;28;20091;-77
2021/04/14 10:42:28;;;;;;;9.50;1.23;;;8.00;83.30;;;;;;5032504;28;20037;-78
2021/04/14 10:45:03;;;;;;;4.25;0.70;;;8.20;80.90;;;;;;5031869;28;20029;-77
2021/04/14 10:47:37;;;;;;;6.55;0.82;;;8.40;79.60;;;;;;5045703;28;20117;-77
2021/04/14 10:50:17;;;;;;;2.80;0.70;;;8.40;78.50;;;;;;5020176;28;20049;-78
2021/04/14 10:52:44;;;;;;;6.53;0.90;;;8.10;77.30;;;;;;5027253;28;20049;-78
2021/04/14 10:55:19;;;;;;;3.88;0.75;;;8.00;79.00;;;;;;5059905;28;20030;-79
2021/04/14 10:57:48;;;;;;;7.30;0.88;;;7.80;79.30;;;;;;5023402;28;20053;-78
2021/04/14 11:00:22;;;;;;;4.43;0.70;;;7.70;81.00;;;;;;5030242;28;20037;-78
2021/04/14 11:02:50;;;;;;;10.43;2.03;;;7.60;83.00;;;;;;5020100;28;20557;-78
2021/04/14 11:05:20;;;;;;;9.00;0.80;;;7.60;81.30;;;;;;5028027;28;20091;-78
2021/04/14 11:07:49;;;;;;;3.67;0.70;;;7.70;83.50;;;;;;5025265;28;20561;-78
2021/04/14 11:10:23;;;;;;;6.13;0.95;;;7.60;80.90;;;;;;5023026;28;20034;-79
2021/04/14 11:12:50;;;;;;;4.07;0.75;;;7.60;83.50;;;;;;5013762;28;20046;-78
2021/04/14 11:15:20;;;;;;;5.35;0.75;;;7.70;80.20;;;;;;5024758;28;20141;-78
2021/04/14 11:17:58;;;;;;;4.47;1.08;;;7.60;77.40;;;;;;5027845;28;20056;-78
2021/04/14 11:20:37;;;;;;;4.30;0.75;;;7.60;74.30;;;;;;5025723;28;20046;-79
2021/04/14 11:23:03;;;;;;;5.90;0.50;;;7.50;77.60;;;;;;5038398;28;20520;-78
2021/04/14 11:25:32;;;;;;;4.00;0.60;;;7.60;80.00;;;;;;4995337;28;20038;-79
2021/04/14 11:28:05;;;;;;;9.13;0.90;;;7.70;79.10;;;;;;5028334;28;20033;-78
2021/04/14 11:30:33;;;;;;;2.15;0.73;;;7.70;71.70;;;;;;5025980;28;20037;-78
2021/04/14 11:33:01;;;;;;;3.20;0.50;;;7.70;74.40;;;;;;5027408;28;20045;-78
2021/04/14 11:35:39;;;;;;;5.15;1.40;;;7.80;75.80;;;;;;5022863;28;20049;-78
2021/04/14 11:38:05;;;;;;;4.20;1.02;;;8.00;77.80;;;;;;5043877;28;20508;-78
2021/04/14 11:40:38;;;;;;;4.03;0.50;;;8.20;78.00;;;;;;5041251;28;20037;-78
2021/04/14 11:43:23;;;;;;;5.22;0.60;;;8.40;77.40;;;;;;5034270;28;20052;-78
2021/04/14 11:45:57;;;;;;;3.30;0.52;;;8.40;72.90;;;;;;5045536;28;20060;-77
2021/04/14 11:48:33;;;;;;;3.10;0.90;;;8.40;74.40;;;;;;5027527;28;20052;-79
2021/04/14 11:51:14;;;;;;;3.70;1.10;;;8.30;71.80;;;;;;5024264;28;20034;-78
2021/04/14 11:53:50;;;;;;;5.25;0.80;;;8.50;74.70;;;;;;5024618;28;20041;-78
2021/04/14 11:56:34;;;;;;;3.70;0.77;;;8.70;75.70;;;;;;5026097;28;20037;-77
2021/04/14 11:59:00;;;;;;;5.20;1.08;;;8.70;75.20;;;;;;5021759;28;20037;-78
2021/04/14 12:01:29;;;;;;;6.22;1.05;;;8.70;76.20;;;;;;5023640;28;20192;-77
2021/04/14 12:03:54;;;;;;;4.97;0.90;;;8.60;75.40;;;;;;5041549;28;20029;-78
2021/04/14 12:06:20;;;;;;;8.57;1.00;;;8.60;76.70;;;;;;5054147;28;20044;-78
2021/04/14 12:08:47;;;;;;;5.63;0.88;;;8.70;75.30;;;;;;5038001;28;20044;-77
2021/04/14 12:11:23;;;;;;;5.65;0.80;;;8.70;75.30;;;;;;5019062;28;20059;-77
2021/04/14 12:13:49;;;;;;;4.10;0.52;;;8.90;73.70;;;;;;5042916;28;20076;-76
2021/04/14 12:16:15;;;;;;;6.68;1.25;;;9.00;73.90;;;;;;5009717;28;20033;-76
2021/04/14 12:18:42;;;;;;;2.10;0.70;;;9.10;75.60;;;;;;5040252;28;20120;-76
2021/04/14 12:21:08;;;;;;;5.18;0.70;;;8.90;77.20;;;;;;5039661;28;20042;-77
2021/04/14 12:23:35;;;;;;;8.43;1.10;;;8.80;77.80;;;;;;5023856;28;20029;-76
2021/04/14 12:26:01;;;;;;;7.78;1.27;;;8.60;77.50;;;;;;5024718;28;20037;-77
2021/04/14 12:28:27;;;;;;;4.07;0.85;;;8.50;78.10;;;;;;5025423;28;20052;-76
2021/04/14 12:30:53;;;;;;;3.20;0.85;;;8.40;79.80;;;;;;5057484;28;20034;-76
2021/04/14 12:33:19;;;;;;;3.92;0.90;;;8.30;80.10;;;;;;5040782;28;20033;-76
2021/04/14 12:35:45;;;;;;;8.25;1.10;;;8.20;81.00;;;;;;5009904;28;20068;-76
2021/04/14 12:38:11;;;;;;;4.78;1.00;;;8.30;80.50;;;;;;5025064;28;20068;-77
2021/04/14 12:40:37;;;;;;;6.07;0.82;;;8.50;79.40;;;;;;5008894;28;20096;-77
2021/04/14 12:43:03;;;;;;;3.80;0.80;;;8.80;77.70;;;;;;5053040;28;20041;-77
2021/04/14 12:45:35;;;;;;;2.08;0.55;;;9.10;78.50;;;;;;5042137;28;20036;-78
2021/04/14 12:48:02;;;;;;;3.15;0.73;;;9.10;74.40;;;;;;5025866;28;20389;-77
2021/04/14 12:50:28;;;;;;;3.63;0.70;;;8.90;70.40;;;;;;5023209;28;20117;-78
2021/04/14 12:52:57;;;;;;;3.05;0.77;;;8.80;74.30;;;;;;5040017;28;20057;-78
2021/04/14 12:55:30;;;;;;;3.92;0.60;;;8.60;74.10;;;;;;5037817;28;20088;-77
2021/04/14 12:57:59;;;;;;;5.75;0.80;;;8.50;73.80;;;;;;5024473;28;20048;-77
2021/04/14 13:00:27;;;;;;;5.85;0.88;;;8.50;73.90;;;;;;5041941;28;20512;-77
2021/04/14 13:03:10;;;;;;;7.32;0.90;;;8.40;74.90;;;;;;5023051;28;20056;-77
2021/04/14 13:05:44;;;;;;;4.40;0.47;;;8.50;76.90;;;;;;5036572;28;20041;-77
2021/04/14 13:08:11;;;;;;;5.65;0.77;;;8.40;72.00;;;;;;5042459;28;20545;-78
2021/04/14 13:10:45;;;;;;;5.53;0.77;;;8.30;75.30;;;;;;5026720;28;20060;-78
2021/04/14 13:13:11;;;;;;;1.55;0.57;;;8.30;75.90;;;;;;5041123;28;20440;-78
2021/04/14 13:15:47;;;;;;;5.05;0.88;;;8.30;77.10;;;;;;5024602;28;20041;-78
2021/04/14 13:18:13;;;;;;;2.08;0.40;;;8.20;71.10;;;;;;5042621;28;20521;-78